createdAt,value
2018-06-24T09:08:08.393Z,91.60
2018-06-24T09:10:37.482Z,91.20
2018-06-24T09:13:06.786Z,91.80
2018-06-24T09:15:35.472Z,92.20
2018-06-24T09:18:04.473Z,93.40
2018-06-24T09:20:32.822Z,94.40
2018-06-24T09:23:01.628Z,95.40
2018-06-24T09:25:30.188Z,92.30
2018-06-24T09:27:58.565Z,89.70
2018-06-24T09:30:27.198Z,85.00
2018-06-24T09:32:55.872Z,89.10
2018-06-24T09:35:24.328Z,84.10
2018-06-24T09:37:52.780Z,82.00
2018-06-24T09:40:21.144Z,81.80
2018-06-24T09:42:49.484Z,86.10
2018-06-24T09:45:18.471Z,86.30
2018-06-24T09:47:47.091Z,90.70
2018-06-24T09:50:15.451Z,91.10
2018-06-24T09:52:43.895Z,92.20
2018-06-24T09:55:12.667Z,92.50
2018-06-24T09:57:41.364Z,90.50
2018-06-24T10:00:15.068Z,86.90
2018-06-24T10:02:43.424Z,84.70
2018-06-24T10:05:12.068Z,80.60
2018-06-24T10:07:40.664Z,81.40
2018-06-24T10:10:09.677Z,84.30
2018-06-24T10:12:38.040Z,86.90
2018-06-24T10:15:06.960Z,84.10
2018-06-24T10:17:35.643Z,86.40
2018-06-24T10:20:04.408Z,87.10
2018-06-24T10:22:32.804Z,87.60
2018-06-24T10:25:01.490Z,82.60
2018-06-24T10:27:30.495Z,88.30
2018-06-24T10:29:59.080Z,91.30
2018-06-24T10:32:29.216Z,86.80
2018-06-24T10:34:57.656Z,82.40
2018-06-24T10:37:26.268Z,79.40
2018-06-24T10:39:54.796Z,80.60
2018-06-24T10:42:23.370Z,77.60
2018-06-24T10:44:52.008Z,76.70
2018-06-24T10:47:20.445Z,79.80
2018-06-24T10:49:48.777Z,78.90
2018-06-24T10:52:17.419Z,79.20
2018-06-24T10:54:46.093Z,83.50
2018-06-24T10:57:14.705Z,81.30
2018-06-24T10:59:43.061Z,80.70
2018-06-24T11:02:11.463Z,71.30
2018-06-24T11:04:40.336Z,69.10
2018-06-24T11:07:08.906Z,69.80
2018-06-24T11:09:37.254Z,71.00
2018-06-24T11:12:06.246Z,75.50
2018-06-24T11:14:34.582Z,81.30
2018-06-24T11:17:03.298Z,78.10
2018-06-24T11:19:31.880Z,78.50
2018-06-24T11:22:00.230Z,79.10
2018-06-24T11:24:28.576Z,79.00
2018-06-24T11:26:57.101Z,78.30
2018-06-24T11:29:25.703Z,81.60
2018-06-24T11:31:54.303Z,79.70
2018-06-24T11:34:22.915Z,82.00
2018-06-24T11:36:51.227Z,81.50
2018-06-24T11:39:19.529Z,79.10
2018-06-24T11:41:47.827Z,74.30
2018-06-24T11:44:16.719Z,74.50
2018-06-24T11:46:45.276Z,76.00
2018-06-24T11:49:13.877Z,74.10
2018-06-24T11:51:42.487Z,77.50
2018-06-24T11:54:10.985Z,80.80
2018-06-24T11:56:39.463Z,79.10
2018-06-24T11:59:07.829Z,79.90
2018-06-24T12:01:36.770Z,69.40
2018-06-24T12:04:05.793Z,70.30
2018-06-24T12:09:02.320Z,64.90
2018-06-24T12:11:30.592Z,61.10
2018-06-24T12:13:58.884Z,63.50
2018-06-24T12:16:27.277Z,64.00
2018-06-24T12:18:55.592Z,66.60
2018-06-24T12:21:23.888Z,63.30
2018-06-24T12:23:52.416Z,64.70
2018-06-24T12:26:20.820Z,65.30
2018-06-24T12:28:49.100Z,68.20
2018-06-24T12:31:18.094Z,69.00
2018-06-24T12:33:46.468Z,70.90
2018-06-24T12:36:15.084Z,71.00
2018-06-24T12:38:43.459Z,71.80
2018-06-24T12:41:11.946Z,71.30
2018-06-24T12:43:40.547Z,69.10
2018-06-24T12:46:08.915Z,73.40
2018-06-24T12:48:37.521Z,74.30
2018-06-24T12:51:06.248Z,69.00
2018-06-24T12:53:34.600Z,69.30
2018-06-24T12:56:03.247Z,67.40
2018-06-24T12:58:32.055Z,63.70
2018-06-24T13:01:00.874Z,63.60
2018-06-24T13:03:29.623Z,60.70
2018-06-24T13:05:58.251Z,59.70
2018-06-24T13:08:26.895Z,61.00
2018-06-24T13:10:55.534Z,63.50
2018-06-24T13:13:24.154Z,65.90
2018-06-24T13:15:52.575Z,68.10
2018-06-24T13:18:21.009Z,69.20
2018-06-24T13:20:49.360Z,71.50
2018-06-24T13:23:18.072Z,70.40
2018-06-24T13:25:46.412Z,73.30
2018-06-24T13:28:14.884Z,72.30
2018-06-24T13:30:43.255Z,72.10
2018-06-24T13:33:11.610Z,72.80
2018-06-24T13:35:40.285Z,73.90
2018-06-24T13:38:09.003Z,74.00
2018-06-24T13:40:38.239Z,74.20
2018-06-24T13:43:48.370Z,71.30
2018-06-24T13:46:16.724Z,73.70
2018-06-24T13:48:45.056Z,75.80
2018-06-24T13:51:13.755Z,75.20
2018-06-24T13:53:42.727Z,75.40
2018-06-24T13:56:11.092Z,77.30
2018-06-24T13:58:39.457Z,77.10
2018-06-24T14:01:07.845Z,76.10
2018-06-24T14:03:36.463Z,75.60
2018-06-24T14:06:05.119Z,74.70
2018-06-24T14:08:33.921Z,73.20
2018-06-24T14:11:02.303Z,75.90
2018-06-24T14:13:30.939Z,72.20
2018-06-24T14:16:00.178Z,73.80
2018-06-24T14:18:28.939Z,73.80
2018-06-24T14:20:57.618Z,70.40
2018-06-24T14:23:25.997Z,72.10
2018-06-24T14:25:54.525Z,68.70
2018-06-24T14:28:22.882Z,67.90
2018-06-24T14:30:51.500Z,70.00
2018-06-24T14:33:20.097Z,68.30
2018-06-24T14:35:48.700Z,67.50
2018-06-24T14:38:17.048Z,67.10
2018-06-24T14:40:45.404Z,67.80
2018-06-24T14:43:13.940Z,66.60
2018-06-24T14:45:42.288Z,68.80
2018-06-24T14:48:10.604Z,66.10
2018-06-24T14:50:39.398Z,63.30
2018-06-24T14:55:36.556Z,63.50
2018-06-24T14:58:05.117Z,67.20
2018-06-24T15:00:33.495Z,64.70
2018-06-24T15:03:02.460Z,64.70
2018-06-24T15:05:31.072Z,65.70
2018-06-24T15:07:59.459Z,67.50
2018-06-24T15:10:28.309Z,73.10
2018-06-24T15:12:57.045Z,71.30
2018-06-24T15:15:26.375Z,68.90
2018-06-24T15:17:54.893Z,68.60
2018-06-24T15:20:23.633Z,66.40
2018-06-24T15:22:52.281Z,63.70
2018-06-24T15:25:20.992Z,63.00
2018-06-24T15:27:49.684Z,63.30
2018-06-24T15:30:18.139Z,62.80
2018-06-24T15:32:46.832Z,61.60
2018-06-24T15:35:15.245Z,63.00
2018-06-24T15:37:44.594Z,60.10
2018-06-24T15:40:13.796Z,59.30
2018-06-24T15:42:42.554Z,59.30
2018-06-24T15:45:11.783Z,61.90
2018-06-24T15:47:40.487Z,64.20
2018-06-24T15:50:09.417Z,65.30
2018-06-24T15:52:37.848Z,64.20
2018-06-24T15:55:06.622Z,65.90
2018-06-24T15:57:34.989Z,68.00
2018-06-24T16:00:03.491Z,64.60
2018-06-24T16:02:33.213Z,66.60
2018-06-24T16:05:02.443Z,69.10
2018-06-24T16:07:31.105Z,71.70
2018-06-24T16:10:01.329Z,66.60
2018-06-24T16:12:29.927Z,68.00
2018-06-24T16:14:59.297Z,67.10
2018-06-24T16:17:27.657Z,67.20
2018-06-24T16:19:57.193Z,69.50
2018-06-24T16:22:25.677Z,68.80
2018-06-24T16:24:54.390Z,68.80
2018-06-24T16:27:24.177Z,68.70
2018-06-24T16:29:53.440Z,69.70
2018-06-24T16:35:56.185Z,72.80
2018-06-24T16:38:24.749Z,73.50
2018-06-24T16:40:54.653Z,76.50
2018-06-24T16:43:23.339Z,76.30
2018-06-24T16:45:52.461Z,75.40
2018-06-24T16:48:20.812Z,75.10
2018-06-24T16:50:49.241Z,77.00
2018-06-24T16:53:18.307Z,76.10
2018-06-24T16:55:47.017Z,77.70
2018-06-24T16:58:15.656Z,77.80
2018-06-24T17:00:44.172Z,78.10
2018-06-24T17:03:12.984Z,78.20
2018-06-24T17:05:41.744Z,80.70
2018-06-24T17:08:10.288Z,80.10
2018-06-24T17:10:38.792Z,77.20
2018-06-24T17:13:07.795Z,78.00
2018-06-24T17:15:36.144Z,79.50
2018-06-24T17:18:04.500Z,79.60
2018-06-24T17:20:33.108Z,79.30
2018-06-24T17:23:01.452Z,80.30
2018-06-24T17:25:29.803Z,80.70
2018-06-24T17:27:58.468Z,80.40
2018-06-24T17:30:27.129Z,80.00
2018-06-24T17:32:56.079Z,81.00
2018-06-24T17:35:24.375Z,80.80
2018-06-24T17:37:52.965Z,81.90
2018-06-24T17:40:21.538Z,80.30
2018-06-24T17:42:50.119Z,81.50
2018-06-24T17:45:18.773Z,81.80
2018-06-24T17:47:47.745Z,81.70
2018-06-24T17:50:16.122Z,83.80
2018-06-24T17:52:44.449Z,83.20
2018-06-24T17:55:13.370Z,84.60
2018-06-24T17:57:41.920Z,83.80
2018-06-24T18:00:10.357Z,85.40
2018-06-24T18:02:38.914Z,84.70
2018-06-24T18:05:07.473Z,84.10
2018-06-24T18:07:36.048Z,84.40
2018-06-24T18:10:04.532Z,86.00
2018-06-24T18:12:33.105Z,85.10
2018-06-24T18:15:02.024Z,85.00
2018-06-24T18:17:30.639Z,84.90
2018-06-24T18:19:59.140Z,85.10
2018-06-24T18:22:27.452Z,86.00
2018-06-24T18:24:55.936Z,85.60
2018-06-24T18:27:24.292Z,85.40
2018-06-24T18:29:52.847Z,86.60
2018-06-24T18:32:21.141Z,86.90
2018-06-24T18:34:49.956Z,86.30
2018-06-24T18:37:19.115Z,88.00
2018-06-24T18:39:47.454Z,87.70
2018-06-24T18:42:15.901Z,87.40
2018-06-24T18:44:44.555Z,88.00
2018-06-24T18:47:13.159Z,87.90
2018-06-24T18:49:41.451Z,89.20
2018-06-24T18:52:10.109Z,88.70
2018-06-24T18:54:38.565Z,89.50
2018-06-24T18:57:07.209Z,90.30
2018-06-24T18:59:35.785Z,89.90
2018-06-24T19:02:04.840Z,90.40
2018-06-24T19:04:33.472Z,90.60
2018-06-24T19:07:02.148Z,90.30
2018-06-24T19:09:30.824Z,91.50
2018-06-24T19:11:59.156Z,91.00
2018-06-24T19:14:27.480Z,90.80
2018-06-24T19:16:55.902Z,92.00
2018-06-24T19:19:24.528Z,91.00
2018-06-24T19:21:53.426Z,90.70
2018-06-24T19:24:22.188Z,91.30
2018-06-24T19:26:51.082Z,90.80
2018-06-24T19:29:19.425Z,90.90
2018-06-24T19:31:48.844Z,92.00
2018-06-24T19:34:17.380Z,91.20
2018-06-24T19:36:46.160Z,90.90
2018-06-24T19:39:14.977Z,90.80
2018-06-24T19:41:43.946Z,91.10
2018-06-24T19:44:12.300Z,90.90
2018-06-24T19:46:40.728Z,91.20
2018-06-24T19:49:09.454Z,91.40
2018-06-24T19:51:38.095Z,91.70
2018-06-24T19:54:07.029Z,91.70
2018-06-24T19:56:35.771Z,92.00
2018-06-24T19:59:04.320Z,92.70
2018-06-24T20:01:32.833Z,92.50
2018-06-24T20:04:01.211Z,92.80
2018-06-24T20:06:29.991Z,92.40
2018-06-24T20:08:58.920Z,93.10
2018-06-24T20:11:27.273Z,92.70
2018-06-24T20:13:55.942Z,93.00
2018-06-24T20:16:24.762Z,93.00
2018-06-24T20:18:53.515Z,93.70
2018-06-24T20:21:21.851Z,92.80
2018-06-24T20:23:50.265Z,93.80
2018-06-24T20:26:18.609Z,93.10
2018-06-24T20:28:47.493Z,93.90
2018-06-24T20:31:15.831Z,94.10
2018-06-24T20:33:44.197Z,94.20
2018-06-24T20:36:12.797Z,94.50
2018-06-24T20:38:41.519Z,94.30
2018-06-24T20:41:09.864Z,94.80
2018-06-24T20:43:38.440Z,95.10
2018-06-24T20:46:07.088Z,95.30
2018-06-24T20:48:35.452Z,94.20
2018-06-24T20:51:03.880Z,94.40
2018-06-24T20:53:32.824Z,94.70
2018-06-24T20:56:01.172Z,94.10
2018-06-24T20:58:29.511Z,95.20
2018-06-24T21:00:58.020Z,94.40
2018-06-24T21:03:26.860Z,93.80
2018-06-24T21:05:55.209Z,93.40
2018-06-24T21:08:23.893Z,93.10
2018-06-24T21:10:52.547Z,93.50
2018-06-24T21:13:21.591Z,93.90
2018-06-24T21:15:50.545Z,93.20
2018-06-24T21:18:19.134Z,93.50
2018-06-24T21:20:47.749Z,93.00
2018-06-24T21:23:16.089Z,93.50
2018-06-24T21:25:44.435Z,93.20
2018-06-24T21:28:12.857Z,93.50
2018-06-24T21:30:41.377Z,93.40
2018-06-24T21:33:09.765Z,92.70
2018-06-24T21:35:38.237Z,93.40
2018-06-24T21:38:06.844Z,93.40
2018-06-24T21:40:35.196Z,93.60
2018-06-24T21:43:03.924Z,93.20
2018-06-24T21:48:00.380Z,93.50
2018-06-24T21:50:28.728Z,93.80
2018-06-24T21:52:57.760Z,93.70
2018-06-24T21:55:26.544Z,93.70
2018-06-24T21:57:55.146Z,94.30
2018-06-24T22:00:23.632Z,93.80
2018-06-24T22:02:52.071Z,93.40
2018-06-24T22:05:20.656Z,93.70
2018-06-24T22:07:49.716Z,93.50
2018-06-24T22:10:18.380Z,93.40
2018-06-24T22:12:46.720Z,93.50
2018-06-24T22:15:15.098Z,93.60
2018-06-24T22:17:43.527Z,93.80
2018-06-24T22:20:12.467Z,93.60
2018-06-24T22:22:41.211Z,93.60
2018-06-24T22:25:09.796Z,93.90
2018-06-24T22:27:38.436Z,94.00
2018-06-24T22:30:07.422Z,93.90
2018-06-24T22:32:35.815Z,94.30
2018-06-24T22:35:04.511Z,94.40
2018-06-24T22:37:32.863Z,94.80
2018-06-24T22:40:01.207Z,94.50
2018-06-24T22:42:29.859Z,95.50
2018-06-24T22:44:58.155Z,95.40
2018-06-24T22:47:27.043Z,95.60
2018-06-24T22:49:55.679Z,95.50
2018-06-24T22:52:23.958Z,96.30
2018-06-24T22:54:52.722Z,96.40
2018-06-24T22:57:21.365Z,96.20
2018-06-24T23:00:13.905Z,96.80
2018-06-24T23:02:43.128Z,97.20
2018-06-24T23:05:12.277Z,97.50
2018-06-24T23:07:43.014Z,98.40
2018-06-24T23:10:12.404Z,98.70
2018-06-24T23:12:40.949Z,98.90
2018-06-24T23:15:10.653Z,98.90
2018-06-24T23:17:39.421Z,98.70
2018-06-24T23:20:08.493Z,99.40
2018-06-24T23:22:37.021Z,99.40
2018-06-24T23:25:05.908Z,99.90
2018-06-24T23:27:34.468Z,99.90
2018-06-24T23:30:03.068Z,99.90
2018-06-24T23:32:31.344Z,99.90
2018-06-24T23:34:59.943Z,99.90
2018-06-24T23:37:29.019Z,99.90
2018-06-24T23:39:57.317Z,99.90
2018-06-24T23:42:25.614Z,99.90
2018-06-24T23:44:53.919Z,99.90
2018-06-24T23:47:22.239Z,99.90
2018-06-24T23:49:50.799Z,99.90
2018-06-24T23:52:19.093Z,99.90
2018-06-24T23:54:47.391Z,99.90
2018-06-24T23:57:16.011Z,99.90
2018-06-24T23:59:44.549Z,99.90
